Terminal Aerodrome Forecast
Issued by NWS Duluth, MN

Home | Current Version | Previous Version | Text Only | Print | Product List | Glossary On
Versions: 1 2 3 4 5 6 7 8 9 10 11 12 13 14 15 16 17 18 19 20 21 22 23 24 25 26 27 28 29
365
FTUS43 KDLH 171720
TAFDLH
TAF
KDLH 171720Z 1718/1818 00000KT 1/4SM FG VV002
     FM171830 00000KT 1/2SM FG OVC003
     FM171900 00000KT 1SM BR OVC004
     FM172000 26003KT P6SM SCT004
     FM172100 25005KT P6SM FEW200
     FM180900 24009KT P6SM FEW250=

USA.gov is the U.S. government's official web portal to all federal, state and local government web resources and services.